createdAt,value
2023-03-22T00:01:32.348Z,12.52
2023-03-22T00:04:00.775Z,12.44
2023-03-22T00:06:28.277Z,12.41
2023-03-22T00:08:55.815Z,12.36
2023-03-22T00:11:26.811Z,12.25
2023-03-22T00:13:54.762Z,12.12
2023-03-22T00:16:22.492Z,12.45
2023-03-22T00:18:49.801Z,12.87
2023-03-22T00:21:18.390Z,12.80
2023-03-22T00:23:46.419Z,12.92
2023-03-22T00:26:15.469Z,12.91
2023-03-22T00:28:43.631Z,12.74
2023-03-22T00:31:11.733Z,12.93
2023-03-22T00:33:39.083Z,13.32
2023-03-22T00:36:11.109Z,12.98
2023-03-22T00:38:42.844Z,12.35
2023-03-22T00:41:20.857Z,11.93
2023-03-22T00:43:50.394Z,12.16
2023-03-22T00:46:21.142Z,12.00
2023-03-22T00:48:49.339Z,11.57
2023-03-22T00:51:18.049Z,11.58
2023-03-22T00:53:49.489Z,11.71
2023-03-22T00:56:16.982Z,11.92
2023-03-22T00:59:06.421Z,11.84
2023-03-22T01:01:33.700Z,11.82
2023-03-22T01:04:03.052Z,12.02
2023-03-22T01:06:33.275Z,12.26
2023-03-22T01:09:00.663Z,12.17
2023-03-22T01:11:28.562Z,11.92
2023-03-22T01:13:55.830Z,12.03
2023-03-22T01:16:23.101Z,12.48
2023-03-22T01:18:50.343Z,12.14
2023-03-22T01:21:18.345Z,11.75
2023-03-22T01:23:46.611Z,11.56
2023-03-22T01:26:13.921Z,12.03
2023-03-22T01:28:41.144Z,12.28
2023-03-22T01:31:08.524Z,12.09
2023-03-22T01:33:35.725Z,11.79
2023-03-22T01:36:03.426Z,11.73
2023-03-22T01:38:31.244Z,11.72
2023-03-22T01:41:01.001Z,11.67
2023-03-22T01:43:31.973Z,11.61
2023-03-22T01:46:00.036Z,11.47
2023-03-22T01:48:46.615Z,11.80
2023-03-22T01:51:25.330Z,11.34
2023-03-22T01:54:44.858Z,11.43
2023-03-22T01:57:42.290Z,11.12
2023-03-22T02:00:16.755Z,11.01
2023-03-22T02:03:04.403Z,11.05
2023-03-22T02:05:37.141Z,11.10
2023-03-22T02:08:05.477Z,10.71
2023-03-22T02:10:51.412Z,10.21
2023-03-22T02:13:56.169Z,10.32
2023-03-22T02:17:13.569Z,10.10
2023-03-22T02:20:22.091Z,10.36
2023-03-22T02:23:39.247Z,10.20
2023-03-22T02:26:46.964Z,10.38
2023-03-22T02:30:13.101Z,10.58
2023-03-22T02:33:16.733Z,10.16
2023-03-22T02:36:25.749Z,9.65
2023-03-22T02:39:36.158Z,9.39
2023-03-22T02:42:35.353Z,9.70
2023-03-22T02:45:29.037Z,9.66
2023-03-22T02:48:06.671Z,9.39
2023-03-22T02:50:54.634Z,9.29
2023-03-22T02:53:48.316Z,9.64
2023-03-22T02:56:39.251Z,9.68
2023-03-22T02:59:12.098Z,9.99
2023-03-22T03:01:58.251Z,10.20
2023-03-22T03:04:32.960Z,9.99
2023-03-22T03:07:09.390Z,9.53
2023-03-22T03:09:42.898Z,9.63
2023-03-22T03:12:26.536Z,9.90
2023-03-22T03:14:56.218Z,9.86
2023-03-22T03:17:51.245Z,9.77
2023-03-22T03:20:49.530Z,9.59
2023-03-22T03:23:38.571Z,10.02
2023-03-22T03:26:45.453Z,9.82
2023-03-22T03:29:33.002Z,9.93
2023-03-22T03:32:38.443Z,9.91
2023-03-22T03:35:22.574Z,10.12
2023-03-22T03:37:57.723Z,10.14
2023-03-22T03:40:35.391Z,9.86
2023-03-22T03:43:06.643Z,10.10
2023-03-22T03:45:37.102Z,9.76
2023-03-22T03:48:21.833Z,9.77
2023-03-22T03:50:53.692Z,9.82
2023-03-22T03:53:21.063Z,9.86
2023-03-22T03:55:48.755Z,9.89
2023-03-22T03:58:16.831Z,10.06
2023-03-22T04:00:47.688Z,9.91
2023-03-22T04:03:40.746Z,9.72
2023-03-22T04:06:13.701Z,9.80
2023-03-22T04:08:46.060Z,9.66
2023-03-22T04:11:16.191Z,9.56
2023-03-22T04:13:45.600Z,9.67
2023-03-22T04:16:17.420Z,9.61
2023-03-22T04:18:44.701Z,9.60
2023-03-22T04:21:13.505Z,9.39
2023-03-22T04:23:50.210Z,9.29
2023-03-22T04:26:18.618Z,9.17
2023-03-22T04:29:00.490Z,9.64
2023-03-22T04:31:28.631Z,9.74
2023-03-22T04:34:06.567Z,9.60
2023-03-22T04:36:49.819Z,9.75
2023-03-22T04:39:40.474Z,9.69
2023-03-22T04:42:34.890Z,9.31
2023-03-22T04:45:29.231Z,9.41
2023-03-22T04:48:01.224Z,9.25
2023-03-22T04:50:29.299Z,9.22
2023-03-22T04:53:00.686Z,9.24
2023-03-22T04:55:28.013Z,9.30
2023-03-22T04:57:55.294Z,9.23
2023-03-22T05:00:24.598Z,9.26
2023-03-22T05:02:53.776Z,9.10
2023-03-22T05:05:33.152Z,9.14
2023-03-22T05:08:02.809Z,8.97
2023-03-22T05:10:29.992Z,9.00
2023-03-22T05:12:58.754Z,8.92
2023-03-22T05:15:35.617Z,8.98
2023-03-22T05:18:04.628Z,8.95
2023-03-22T05:20:32.516Z,8.88
2023-03-22T05:23:21.234Z,8.92
2023-03-22T05:25:54.521Z,9.01
2023-03-22T05:28:22.758Z,9.15
2023-03-22T05:31:21.710Z,9.29
2023-03-22T05:34:08.071Z,9.45
2023-03-22T05:36:36.998Z,9.37
2023-03-22T05:39:24.531Z,9.39
2023-03-22T05:41:52.669Z,9.19
2023-03-22T05:44:20.244Z,9.61
2023-03-22T05:47:09.554Z,9.38
2023-03-22T05:49:48.365Z,9.29
2023-03-22T05:52:15.787Z,9.50
2023-03-22T05:55:03.982Z,9.54
2023-03-22T05:57:31.464Z,9.58
2023-03-22T05:59:59.332Z,9.73
2023-03-22T06:02:41.552Z,9.93
2023-03-22T06:05:13.858Z,10.02
2023-03-22T06:07:42.957Z,10.00
2023-03-22T06:10:17.692Z,10.22
2023-03-22T06:12:45.484Z,10.23
2023-03-22T06:15:22.244Z,10.34
2023-03-22T06:18:09.760Z,10.53
2023-03-22T06:20:42.112Z,10.66
2023-03-22T06:23:15.798Z,10.92
2023-03-22T06:25:46.162Z,10.80
2023-03-22T06:28:13.771Z,11.13
2023-03-22T06:30:48.999Z,11.36
2023-03-22T06:33:25.649Z,11.32
2023-03-22T06:36:00.940Z,11.45
2023-03-22T06:39:00.865Z,12.21
2023-03-22T06:41:28.434Z,12.34
2023-03-22T06:43:55.863Z,12.50
2023-03-22T06:46:47.484Z,11.99
2023-03-22T06:49:26.875Z,12.03
2023-03-22T06:51:56.110Z,12.53
2023-03-22T06:54:23.829Z,12.80
2023-03-22T06:56:51.168Z,12.96
2023-03-22T06:59:18.524Z,12.85
2023-03-22T07:01:46.119Z,13.11
2023-03-22T07:04:13.397Z,13.02
2023-03-22T07:06:41.555Z,13.15
2023-03-22T07:09:10.256Z,13.68
2023-03-22T07:11:38.294Z,14.56
2023-03-22T07:14:05.788Z,16.45
2023-03-22T07:16:50.584Z,19.45
2023-03-22T07:19:19.443Z,21.20
2023-03-22T07:21:47.728Z,22.90
2023-03-22T07:24:15.362Z,24.83
2023-03-22T07:26:42.879Z,26.84
2023-03-22T07:29:15.139Z,28.58
2023-03-22T07:31:42.739Z,29.55
2023-03-22T07:34:22.208Z,29.68
2023-03-22T07:37:03.068Z,31.36
2023-03-22T07:39:31.527Z,32.79
2023-03-22T07:41:59.209Z,32.75
2023-03-22T07:44:27.241Z,34.43
2023-03-22T07:47:12.746Z,35.07
2023-03-22T07:49:47.540Z,35.33
2023-03-22T07:52:19.362Z,35.67
2023-03-22T07:54:49.021Z,36.48
2023-03-22T07:57:16.557Z,36.99
2023-03-22T07:59:53.631Z,35.83
2023-03-22T08:02:21.387Z,36.35
2023-03-22T08:04:56.420Z,36.51
2023-03-22T08:07:39.149Z,36.98
2023-03-22T08:10:07.294Z,37.09
2023-03-22T08:12:36.457Z,37.40
2023-03-22T08:15:14.072Z,37.52
2023-03-22T08:17:42.946Z,34.94
2023-03-22T08:20:20.156Z,35.59
2023-03-22T08:22:55.425Z,37.07
2023-03-22T08:26:01.304Z,37.61
2023-03-22T08:28:28.738Z,38.11
2023-03-22T08:30:56.108Z,37.51
2023-03-22T08:33:23.849Z,37.19
2023-03-22T08:35:52.443Z,36.73
2023-03-22T08:38:20.470Z,38.34
2023-03-22T08:40:51.973Z,39.19
2023-03-22T08:43:23.184Z,39.55
2023-03-22T08:45:52.021Z,38.19
2023-03-22T08:48:21.187Z,37.59
2023-03-22T08:51:07.911Z,37.14
2023-03-22T08:54:03.938Z,37.00
2023-03-22T08:56:50.284Z,37.13
2023-03-22T08:59:40.935Z,37.58
2023-03-22T09:02:22.971Z,37.68
2023-03-22T09:04:50.847Z,39.04
2023-03-22T09:07:24.221Z,38.51
2023-03-22T09:10:07.312Z,38.79
2023-03-22T09:12:39.096Z,38.66
2023-03-22T09:15:07.616Z,37.91
2023-03-22T09:17:37.329Z,38.58
2023-03-22T09:20:12.807Z,39.11
2023-03-22T09:22:42.939Z,39.01
2023-03-22T09:25:13.280Z,39.03
2023-03-22T09:27:43.555Z,38.07
2023-03-22T09:30:11.638Z,39.31
2023-03-22T09:32:42.271Z,40.14
2023-03-22T09:35:12.215Z,40.92
2023-03-22T09:37:56.202Z,39.77
2023-03-22T09:40:30.677Z,41.75
2023-03-22T09:43:04.695Z,42.77
2023-03-22T09:45:49.016Z,40.26
2023-03-22T09:48:39.650Z,40.04
2023-03-22T09:51:43.923Z,40.27
2023-03-22T09:54:34.241Z,40.03
2023-03-22T09:57:38.950Z,38.80
2023-03-22T10:00:20.892Z,39.36
2023-03-22T10:02:51.329Z,39.57
2023-03-22T10:05:53.325Z,37.86
2023-03-22T10:09:20.454Z,37.87
2023-03-22T10:12:30.449Z,38.88
2023-03-22T10:15:06.407Z,39.72
2023-03-22T10:17:39.758Z,39.83
2023-03-22T10:20:40.565Z,39.32
2023-03-22T10:23:20.888Z,39.15
2023-03-22T10:25:50.651Z,39.00
2023-03-22T10:28:30.344Z,39.65
2023-03-22T10:30:59.010Z,38.29
2023-03-22T10:33:52.097Z,35.82
2023-03-22T10:36:27.043Z,34.64
2023-03-22T10:39:16.728Z,33.89
2023-03-22T10:41:46.677Z,33.80
2023-03-22T10:44:20.540Z,35.11
2023-03-22T10:46:51.954Z,36.61
2023-03-22T10:49:35.936Z,37.55
2023-03-22T10:52:37.424Z,38.40
2023-03-22T10:55:11.967Z,38.85
2023-03-22T10:57:40.085Z,39.23
2023-03-22T11:00:12.662Z,39.42
2023-03-22T11:02:59.608Z,39.31
2023-03-22T11:05:30.236Z,40.11
2023-03-22T11:07:59.090Z,39.07
2023-03-22T11:10:32.915Z,38.55
2023-03-22T11:13:09.497Z,39.16
2023-03-22T11:15:43.599Z,39.22
2023-03-22T11:18:16.868Z,38.49
2023-03-22T11:20:59.192Z,38.86
2023-03-22T11:23:38.649Z,39.02
2023-03-22T11:26:12.105Z,38.56
2023-03-22T11:28:51.199Z,38.23
2023-03-22T11:31:20.888Z,36.60
2023-03-22T11:34:01.472Z,35.95
2023-03-22T11:36:29.525Z,36.25
2023-03-22T11:39:07.360Z,34.80
2023-03-22T11:41:40.834Z,34.40
2023-03-22T11:44:18.318Z,34.09
2023-03-22T11:47:02.428Z,34.75
2023-03-22T11:49:52.078Z,35.90
2023-03-22T11:52:26.504Z,35.80
2023-03-22T11:54:56.168Z,37.78
2023-03-22T11:57:31.558Z,38.27
2023-03-22T12:00:21.456Z,39.11
2023-03-22T12:03:01.968Z,39.50
2023-03-22T12:05:33.795Z,37.88
2023-03-22T12:08:11.323Z,36.69
2023-03-22T12:10:52.665Z,35.05
2023-03-22T12:13:31.984Z,33.17
2023-03-22T12:16:06.698Z,33.30
2023-03-22T12:18:50.849Z,33.20
2023-03-22T12:21:18.284Z,33.38
2023-03-22T12:23:45.686Z,33.94
2023-03-22T12:26:26.049Z,34.14
2023-03-22T12:29:09.797Z,33.05
2023-03-22T12:31:43.681Z,32.54
2023-03-22T12:34:21.659Z,32.23
2023-03-22T12:36:56.476Z,32.06
2023-03-22T12:39:35.462Z,32.32
2023-03-22T12:42:57.675Z,32.04
2023-03-22T12:45:33.119Z,32.11
2023-03-22T12:48:18.277Z,31.23
2023-03-22T12:51:18.661Z,31.80
2023-03-22T12:53:55.344Z,32.59
2023-03-22T12:56:35.779Z,31.74
2023-03-22T12:59:13.999Z,32.55
2023-03-22T13:02:30.138Z,33.99
2023-03-22T13:05:06.713Z,32.97
2023-03-22T13:07:48.159Z,32.99
2023-03-22T13:10:51.011Z,33.66
2023-03-22T13:13:24.258Z,33.04
2023-03-22T13:16:09.146Z,32.31
2023-03-22T13:18:37.750Z,32.36
2023-03-22T13:21:37.596Z,32.23
2023-03-22T13:24:15.457Z,34.17
2023-03-22T13:26:55.355Z,34.75
2023-03-22T13:29:36.272Z,34.42
2023-03-22T13:32:33.172Z,35.05
2023-03-22T13:35:00.892Z,34.25
2023-03-22T13:38:02.868Z,34.30
2023-03-22T13:41:03.601Z,33.32
2023-03-22T13:43:46.947Z,32.29
2023-03-22T13:46:49.910Z,31.05
2023-03-22T13:49:58.314Z,30.10
2023-03-22T13:52:43.302Z,29.66
2023-03-22T13:55:54.455Z,29.30
2023-03-22T13:58:36.077Z,29.16
2023-03-22T14:01:14.745Z,29.47
2023-03-22T14:03:47.456Z,30.16
2023-03-22T14:06:26.970Z,30.02
2023-03-22T14:09:06.136Z,30.92
2023-03-22T14:11:56.539Z,31.00
2023-03-22T14:14:35.612Z,31.68
2023-03-22T14:17:50.421Z,31.16
2023-03-22T14:20:23.695Z,30.75
